Nearby METAR Reports

 

KICL - Clarinda, Iowa, USA
Distance from station: N 49mi, 79km
Updated: Mon, 15-Oct-2018 8:35am CDT
Clear
Clear
 Wind from NW
Wind: NW 8 mph , 13 km/h
Temperature: 34°F , 1°C
Wind Chill: 27°F , -3°C
Dew Point: 27°F , -3°C
Humidity: 75%
Barometer: 30.39 inHg , 1029.1 hPa
Clouds: Clear
Visibility: 10 miles , 16 km
2018/10/15 13:35 KICL 151335Z AUTO 32007KT 10SM CLR 01/M03 A3039 RMK AO2
KDSM - Des Moines, Iowa, USA
Distance from station: NNE 122mi, 196km
Updated: Mon, 15-Oct-2018 7:54am CDT
Overcast
Overcast
 Wind from NW
Wind: NW 10 mph , 17 km/h
Temperature: 34°F , 1°C
Wind Chill: 26°F , -3°C
Dew Point: 27°F , -3°C
Humidity: 75%
Barometer: 30.30 inHg , 1026.1 hPa
Clouds: Overcast
Visibility: 10 miles , 16 km
Cloud details: Overcast 3400 ft
2018/10/15 12:54 KDSM 151254Z 31009KT 10SM OVC034 01/M03 A3030 RMK AO2 SLP268 T00111028
KFNB - Falls City, Nebraska, USA
Distance from station: W 50mi, 80km
Updated: Mon, 15-Oct-2018 7:53am CDT
Overcast
Overcast
 Wind from WNW
Wind: WNW 9 mph , 15 km/h
Temperature: 30°F , -1°C
Wind Chill: 22°F , -6°C
Dew Point: 28°F , -2°C
Humidity: 93%
Barometer: 30.38 inHg , 1028.8 hPa
Clouds: Overcast
Visibility: 10 miles , 16 km
Cloud details: Overcast 3000 ft
2018/10/15 12:53 KFNB 151253Z AUTO 30008KT 10SM OVC030 M01/M02 A3038 RMK AO2 SLP296 T10061022
 
KMCI - Kansas City, Missouri, USA
Distance from station: S 65mi, 104km
Updated: Mon, 15-Oct-2018 7:53am CDT
Few Clouds
Few Clouds
 Wind from NW
Wind: NW 9 mph , 15 km/h
Temperature: 30°F , -1°C
Wind Chill: 22°F , -6°C
Dew Point: 28°F , -2°C
Humidity: 93%
Barometer: 30.35 inHg , 1027.8 hPa
Clouds: Few Clouds
Visibility: 10 miles , 16 km
Cloud details: Few Clouds 13000 ft
2018/10/15 12:53 KMCI 151253Z 32008KT 10SM FEW130 M01/M02 A3035 RMK AO2 SLP285 T10061017
KOMA - Omaha, Nebraska, USA
Distance from station: NNW 105mi, 169km
Updated: Mon, 15-Oct-2018 7:52am CDT
Clear
Clear
 Wind from W
Wind: W 6 mph , 9 km/h
Temperature: 30°F , -1°C
Wind Chill: 24°F , -4°C
Dew Point: 23°F , -5°C
Humidity: 75%
Barometer: 30.35 inHg , 1027.8 hPa
Clouds: Clear
Visibility: 10 miles , 16 km
2018/10/15 12:52 KOMA 151252Z 28005KT 10SM CLR M01/M05 A3035 RMK AO2 SLP287 T10061050
KRDK - Red Oak, Iowa, USA
Distance from station: N 70mi, 112km
Updated: Mon, 15-Oct-2018 8:35am CDT
Clear
Clear
 Wind from WNW
Wind: WNW 7 mph , 11 km/h
Temperature: 34°F , 1°C
Wind Chill: 28°F , -2°C
Dew Point: 28°F , -2°C
Humidity: 81%
Barometer: 30.37 inHg , 1028.4 hPa
Clouds: Clear
Visibility: 10 miles , 16 km
2018/10/15 13:35 KRDK 151335Z AUTO 29006KT 10SM CLR 01/M02 A3037 RMK AO2
 
KSTJ - Saint Joseph, Missouri, USA
Distance from station: SW 23mi, 37km
Updated: Mon, 15-Oct-2018 7:53am CDT
Clear
Clear
 Wind from NNW
Wind: NNW 6 mph , 9 km/h
Temperature: 30°F , -1°C
Wind Chill: 24°F , -4°C
Dew Point: 30°F , -1°C
Humidity: 100%
Barometer: 30.37 inHg , 1028.4 hPa
Clouds: Clear
Visibility: 10 miles , 16 km
2018/10/15 12:53 KSTJ 151253Z 34005KT 10SM CLR M01/M01 A3037 RMK AO2 SLP293 T10061011
KTOP - Topeka, Kansas, USA
Distance from station: SW 85mi, 137km
Updated: Mon, 15-Oct-2018 7:53am CDT
Clear
Clear
 Wind from WNW
Wind: WNW 7 mph , 11 km/h
Temperature: 30°F , -1°C
Wind Chill: 23°F , -5°C
Dew Point: 28°F , -2°C
Humidity: 93%
Barometer: 30.39 inHg , 1029.1 hPa
Clouds: Clear
Visibility: 10 miles , 16 km
2018/10/15 12:53 KTOP 151253Z 29006KT 10SM CLR M01/M02 A3039 RMK AO2 SLP299 T10061017
KICT - Wichita, Kansas, USA
Distance from station: SW 215mi, 346km
Updated: Mon, 15-Oct-2018 7:53am CDT
Few Clouds
Few Clouds
 Wind from N
Wind: N 14 mph , 22 km/h
Temperature: 32°F , 0°C
Wind Chill: 22°F , -6°C
Dew Point: 27°F , -3°C
Humidity: 80%
Barometer: 30.39 inHg , 1029.1 hPa
Clouds: Few Clouds
Visibility: 10 miles , 16 km
Cloud details: Few Clouds 2000 ft
Few Clouds 20000 ft
2018/10/15 12:53 KICT 151253Z 35012KT 10SM FEW020 FEW200 00/M03 A3039 RMK AO2 SLP301 T00001028 $